Time;durP1;ratioP1;P1;durP2;ratioP2;P2;SDS_P1;SDS_P2;PMS_P1;PMS_P2;Temp;Humidity;BMP_temperature;BMP_pressure;BME280_temperature;BME280_humidity;BME280_pressure;Samples;Min_cycle;Max_cycle;Signal;HPM_P1;HPM_P2
2023/01/10 00:00:42;;;;;;;0.50;0.50;;;21.20;43.30;;;;;;5059105;27;92238;-58
2023/01/10 00:03:10;;;;;;;2.13;0.40;;;21.30;43.20;;;;;;5057936;27;92103;-58
2023/01/10 00:05:39;;;;;;;0.50;0.50;;;21.40;43.20;;;;;;5055737;27;93128;-59
2023/01/10 00:08:07;;;;;;;0.20;0.20;;;21.40;43.20;;;;;;5038511;27;91550;-59
2023/01/10 00:10:36;;;;;;;0.67;0.40;;;21.40;43.20;;;;;;5039321;27;92084;-59
2023/01/10 00:15:50;;;;;;;0.20;0.20;;;21.50;43.20;;;;;;5051184;27;94033;-58
2023/01/10 00:18:19;;;;;;;1.10;0.70;;;21.60;43.90;;;;;;5058581;27;93722;-58
2023/01/10 00:20:47;;;;;;;2.43;0.40;;;21.70;43.40;;;;;;5057060;27;92148;-58
2023/01/10 00:23:16;;;;;;;0.67;0.33;;;21.80;43.10;;;;;;5056624;27;92029;-58
2023/01/10 00:25:44;;;;;;;0.93;0.40;;;22.00;43.10;;;;;;5058810;27;94315;-58
2023/01/10 00:28:18;;;;;;;1.07;0.40;;;22.10;42.90;;;;;;5058295;27;93885;-59
2023/01/10 00:30:58;;;;;;;0.20;0.20;;;22.30;42.90;;;;;;5057891;27;92596;-58
2023/01/10 00:33:26;;;;;;;1.60;0.40;;;22.50;42.80;;;;;;5058341;27;91256;-59
2023/01/10 00:35:54;;;;;;;0.50;0.40;;;22.60;42.70;;;;;;5054465;27;94148;-59
2023/01/10 00:38:22;;;;;;;2.37;0.40;;;22.80;42.60;;;;;;5051823;27;92801;-58
2023/01/10 00:40:50;;;;;;;1.13;0.53;;;22.90;42.60;;;;;;5066381;27;92931;-58
2023/01/10 00:46:05;;;;;;;1.63;0.33;;;23.00;42.40;;;;;;5058026;27;93114;-58
2023/01/10 00:48:33;;;;;;;0.87;0.80;;;23.00;42.40;;;;;;5051279;27;92823;-58
2023/01/10 00:51:01;;;;;;;1.87;0.70;;;23.00;42.40;;;;;;5046580;27;92157;-58
2023/01/10 00:53:29;;;;;;;1.67;1.03;;;22.90;42.40;;;;;;5056540;27;92084;-58
2023/01/10 00:55:57;;;;;;;1.03;0.80;;;22.90;42.40;;;;;;5045095;27;94177;-58
2023/01/10 00:58:25;;;;;;;3.00;1.27;;;22.90;43.00;;;;;;5079035;27;92991;-57
2023/01/10 01:00:53;;;;;;;2.80;1.80;;;22.90;42.50;;;;;;5058671;27;92115;-57
2023/01/10 01:03:23;;;;;;;4.07;1.70;;;22.80;42.40;;;;;;5042114;27;92089;-56
2023/01/10 01:05:51;;;;;;;3.57;1.70;;;22.80;42.50;;;;;;5053352;27;95493;-57
2023/01/10 01:08:19;;;;;;;3.70;1.80;;;22.70;42.50;;;;;;5054378;27;94729;-57
2023/01/10 01:10:47;;;;;;;7.10;1.93;;;22.60;42.50;;;;;;5056458;27;91998;-57
2023/01/10 01:13:16;;;;;;;1.83;1.23;;;22.60;42.60;;;;;;5046426;27;91897;-57
2023/01/10 01:15:44;;;;;;;4.00;1.93;;;22.50;42.60;;;;;;5049514;27;93249;-57
2023/01/10 01:18:13;;;;;;;3.63;1.23;;;22.40;42.50;;;;;;5057946;27;93838;-58
2023/01/10 01:20:44;;;;;;;4.63;1.60;;;22.40;42.60;;;;;;5058135;27;92069;-58
2023/01/10 01:23:12;;;;;;;2.97;1.60;;;22.30;42.60;;;;;;5049690;27;91715;-59
2023/01/10 01:25:40;;;;;;;5.07;1.60;;;22.20;42.60;;;;;;5038412;27;94157;-58
2023/01/10 01:28:09;;;;;;;5.47;2.10;;;22.20;42.60;;;;;;5037835;27;92804;-57
2023/01/10 01:30:37;;;;;;;2.57;1.43;;;22.10;42.70;;;;;;5041818;27;92879;-58
2023/01/10 01:33:05;;;;;;;4.50;1.43;;;22.10;42.70;;;;;;5038620;27;92053;-57
2023/01/10 01:35:33;;;;;;;5.33;2.10;;;22.00;42.70;;;;;;5056101;27;94115;-57
2023/01/10 01:38:02;;;;;;;3.23;2.17;;;21.90;42.70;;;;;;5056752;27;91920;-57
2023/01/10 01:40:31;;;;;;;4.67;2.20;;;21.90;42.70;;;;;;5057423;27;92044;-57
2023/01/10 01:42:59;;;;;;;5.07;2.33;;;21.80;42.70;;;;;;5049394;27;94164;-58
2023/01/10 01:45:37;;;;;;;5.83;3.07;;;21.80;42.80;;;;;;5044996;27;94300;-58
2023/01/10 01:48:09;;;;;;;3.27;1.97;;;21.70;42.80;;;;;;5049281;27;93875;-56
2023/01/10 01:50:40;;;;;;;4.97;1.57;;;21.70;42.80;;;;;;5037675;27;92402;-59
2023/01/10 01:53:11;;;;;;;5.93;2.07;;;21.70;42.80;;;;;;5038129;27;92003;-57
2023/01/10 01:55:39;;;;;;;2.27;1.60;;;21.60;43.40;;;;;;5053946;27;94145;-57
2023/01/10 01:58:09;;;;;;;3.90;1.80;;;21.60;42.80;;;;;;5036667;27;94940;-57
2023/01/10 02:00:37;;;;;;;4.83;1.80;;;21.60;42.90;;;;;;5057048;27;92056;-56
2023/01/10 02:03:05;;;;;;;2.87;1.50;;;21.50;42.80;;;;;;5056052;27;91925;-58
2023/01/10 02:05:34;;;;;;;2.03;1.13;;;21.50;42.80;;;;;;5042319;27;92790;-59
2023/01/10 02:08:02;;;;;;;2.03;1.57;;;21.50;42.90;;;;;;5055548;27;91960;-57
2023/01/10 02:10:33;;;;;;;3.83;1.73;;;21.50;42.90;;;;;;5049024;27;91992;-59
2023/01/10 02:13:03;;;;;;;4.60;2.03;;;21.40;42.90;;;;;;5038904;27;91365;-59
2023/01/10 02:15:31;;;;;;;2.80;1.77;;;21.40;43.00;;;;;;5053871;27;94027;-59
2023/01/10 02:17:59;;;;;;;4.67;2.20;;;21.40;42.90;;;;;;5056836;27;93856;-59
2023/01/10 02:20:27;;;;;;;3.30;1.70;;;21.40;43.00;;;;;;5056416;27;93013;-58
2023/01/10 02:23:24;;;;;;;3.60;2.40;;;21.30;42.90;;;;;;5060877;27;92058;-59
2023/01/10 02:26:30;;;;;;;2.17;1.67;;;21.30;43.00;;;;;;5032952;27;93316;-59
2023/01/10 02:29:36;;;;;;;4.73;1.97;;;21.20;43.00;;;;;;4995833;27;93893;-59
2023/01/10 02:32:20;;;;;;;2.53;1.63;;;21.20;43.00;;;;;;5055049;27;92131;-58
2023/01/10 02:35:20;;;;;;;5.37;2.20;;;21.20;43.70;;;;;;5039944;27;92189;-58
2023/01/10 02:37:53;;;;;;;2.20;1.37;;;21.20;43.00;;;;;;5039790;27;94436;-59
2023/01/10 02:40:24;;;;;;;3.47;2.07;;;21.10;43.00;;;;;;5040238;27;93001;-59
2023/01/10 02:42:55;;;;;;;3.73;1.70;;;21.10;43.00;;;;;;5056648;27;92041;-59
2023/01/10 02:45:26;;;;;;;4.20;1.63;;;21.10;43.00;;;;;;5059964;27;92068;-59
2023/01/10 02:47:56;;;;;;;4.47;2.40;;;21.10;43.70;;;;;;5059615;27;95322;-58
2023/01/10 02:50:30;;;;;;;4.83;2.73;;;21.10;43.00;;;;;;5050793;27;93764;-58
2023/01/10 02:53:00;;;;;;;5.07;2.50;;;21.10;43.00;;;;;;5047688;27;92211;-59
2023/01/10 02:55:33;;;;;;;2.83;1.73;;;21.10;43.00;;;;;;5059874;27;92124;-59
2023/01/10 02:58:04;;;;;;;2.50;1.67;;;21.10;43.10;;;;;;5058565;27;94069;-59
2023/01/10 03:00:37;;;;;;;3.77;1.77;;;21.10;43.10;;;;;;5058372;27;93890;-58
2023/01/10 03:03:32;;;;;;;3.60;2.00;;;21.00;43.00;;;;;;5049464;27;92268;-59
2023/01/10 03:06:08;;;;;;;2.30;1.33;;;21.00;43.10;;;;;;5031997;27;91456;-58
2023/01/10 03:08:39;;;;;;;3.33;1.30;;;21.00;43.10;;;;;;5041108;27;93112;-58
2023/01/10 03:11:07;;;;;;;2.33;1.20;;;21.00;43.10;;;;;;5039144;27;92955;-59
2023/01/10 03:13:37;;;;;;;2.43;1.67;;;21.00;43.10;;;;;;5041492;27;93096;-59
2023/01/10 03:16:07;;;;;;;2.20;1.67;;;21.00;43.10;;;;;;5059258;27;92028;-59
2023/01/10 03:18:39;;;;;;;6.20;2.17;;;20.90;43.00;;;;;;5059513;27;94008;-59
2023/01/10 03:21:07;;;;;;;2.13;1.30;;;20.90;43.00;;;;;;5049623;27;93682;-59
2023/01/10 03:23:35;;;;;;;3.50;1.80;;;20.90;43.00;;;;;;5051207;27;92072;-58
2023/01/10 03:26:03;;;;;;;2.83;1.43;;;20.90;43.10;;;;;;5059839;27;92002;-58
2023/01/10 03:28:33;;;;;;;4.00;1.87;;;20.90;43.10;;;;;;5057692;27;92885;-59
2023/01/10 03:31:03;;;;;;;4.87;2.00;;;20.90;43.20;;;;;;5058782;27;93928;-58
2023/01/10 03:33:32;;;;;;;4.00;1.90;;;20.90;43.20;;;;;;5054964;27;92053;-58
2023/01/10 03:36:07;;;;;;;3.10;1.43;;;20.90;43.20;;;;;;5059519;27;92206;-59
2023/01/10 03:38:38;;;;;;;2.47;1.20;;;20.80;43.10;;;;;;5042444;27;97353;-58
2023/01/10 03:41:08;;;;;;;2.03;1.10;;;20.80;43.10;;;;;;5038240;27;93789;-59
2023/01/10 03:46:27;;;;;;;3.73;1.10;;;20.80;43.10;;;;;;5071364;27;92066;-58
2023/01/10 03:48:55;;;;;;;3.53;1.47;;;20.80;43.20;;;;;;5055919;27;93250;-59
2023/01/10 03:51:25;;;;;;;4.13;1.47;;;20.80;43.10;;;;;;5039062;27;93824;-59
2023/01/10 03:53:53;;;;;;;3.97;2.20;;;20.70;43.10;;;;;;5045640;27;92197;-58
2023/01/10 03:56:21;;;;;;;3.33;1.57;;;20.70;43.10;;;;;;5059833;27;91420;-59
2023/01/10 03:58:49;;;;;;;2.63;1.70;;;20.70;43.20;;;;;;5047263;27;94249;-59
2023/01/10 04:01:17;;;;;;;2.40;1.67;;;20.70;43.20;;;;;;5054800;27;92914;-59
2023/01/10 04:03:45;;;;;;;3.57;1.13;;;20.70;43.20;;;;;;5057505;27;94550;-59
2023/01/10 04:06:13;;;;;;;4.07;1.93;;;20.70;43.20;;;;;;5038866;27;92109;-58
2023/01/10 04:08:42;;;;;;;2.53;1.20;;;20.70;43.20;;;;;;5047252;27;93932;-58
2023/01/10 04:11:10;;;;;;;1.53;0.87;;;20.70;43.20;;;;;;5046192;27;93815;-59
2023/01/10 04:13:40;;;;;;;4.27;1.50;;;20.70;43.20;;;;;;5044721;27;92137;-59
2023/01/10 04:16:10;;;;;;;2.87;1.30;;;20.70;43.20;;;;;;5046704;27;92136;-59
2023/01/10 04:18:38;;;;;;;2.10;1.43;;;20.70;43.20;;;;;;5038620;27;94243;-59
2023/01/10 04:21:06;;;;;;;4.47;1.53;;;20.70;43.80;;;;;;5038794;27;92917;-58
2023/01/10 04:23:34;;;;;;;2.13;1.07;;;20.60;43.10;;;;;;5038727;27;91933;-59
2023/01/10 04:26:04;;;;;;;2.77;1.13;;;20.60;43.20;;;;;;5038897;27;92105;-59
2023/01/10 04:28:32;;;;;;;3.17;1.20;;;20.60;43.20;;;;;;5038162;27;94241;-59
2023/01/10 04:31:00;;;;;;;1.60;1.10;;;20.60;43.20;;;;;;5039282;27;93923;-59
2023/01/10 04:33:28;;;;;;;1.70;1.40;;;20.60;43.20;;;;;;5058102;27;92080;-59
2023/01/10 04:35:56;;;;;;;3.07;1.53;;;20.60;43.20;;;;;;5041215;27;93312;-59
2023/01/10 04:38:24;;;;;;;3.30;1.80;;;20.60;43.20;;;;;;5038178;27;94257;-58
2023/01/10 04:40:52;;;;;;;1.10;1.00;;;20.60;43.30;;;;;;5038128;27;93927;-59
2023/01/10 04:43:22;;;;;;;2.63;1.40;;;20.60;43.20;;;;;;5039750;27;92109;-58
2023/01/10 04:45:50;;;;;;;1.87;1.03;;;20.50;43.20;;;;;;5038811;27;91331;-59
2023/01/10 04:48:18;;;;;;;2.03;0.90;;;20.50;43.20;;;;;;5038312;27;94191;-59
2023/01/10 04:50:49;;;;;;;1.07;0.97;;;20.50;43.30;;;;;;5054478;27;93935;-59
2023/01/10 04:53:17;;;;;;;1.13;0.87;;;20.50;43.30;;;;;;5041369;27;93047;-59
2023/01/10 04:55:45;;;;;;;3.17;1.33;;;20.50;43.20;;;;;;5041033;27;92158;-59
2023/01/10 04:58:13;;;;;;;2.20;1.00;;;20.50;43.30;;;;;;5058410;27;93126;-58
2023/01/10 05:00:43;;;;;;;4.20;1.17;;;20.50;43.30;;;;;;5057741;27;93973;-58
2023/01/10 05:03:11;;;;;;;2.17;0.90;;;20.50;43.30;;;;;;5055128;27;92136;-59
2023/01/10 05:05:39;;;;;;;0.67;0.67;;;20.50;43.30;;;;;;5057789;27;92058;-58
2023/01/10 05:08:07;;;;;;;0.93;0.87;;;20.40;43.20;;;;;;5057767;27;93267;-58
2023/01/10 05:10:34;;;;;;;1.83;1.30;;;20.40;43.20;;;;;;5057885;27;93986;-59
2023/01/10 05:13:02;;;;;;;2.57;1.10;;;20.40;43.20;;;;;;5039673;27;92107;-59
2023/01/10 05:15:30;;;;;;;0.70;0.70;;;20.40;43.30;;;;;;5055970;27;92076;-59
2023/01/10 05:18:00;;;;;;;2.73;1.20;;;20.40;43.20;;;;;;5057260;27;94035;-58
2023/01/10 05:20:28;;;;;;;1.20;1.00;;;20.40;43.30;;;;;;5057347;27;94653;-58
2023/01/10 05:22:56;;;;;;;1.37;0.90;;;20.40;43.30;;;;;;5058006;27;92094;-59
2023/01/10 05:25:24;;;;;;;4.00;0.80;;;20.40;43.30;;;;;;5057969;27;92035;-59
2023/01/10 05:27:52;;;;;;;1.63;1.10;;;20.40;43.30;;;;;;5058021;27;93178;-59
2023/01/10 05:30:20;;;;;;;1.20;0.97;;;20.30;43.30;;;;;;5057668;27;92921;-59
2023/01/10 05:32:48;;;;;;;1.87;1.07;;;20.30;43.30;;;;;;5058032;27;92104;-59
2023/01/10 05:35:17;;;;;;;1.67;1.23;;;20.30;43.90;;;;;;5052814;27;91275;-60
2023/01/10 05:37:45;;;;;;;2.90;1.13;;;20.30;43.30;;;;;;5037264;27;93878;-58
2023/01/10 05:40:13;;;;;;;1.10;0.70;;;20.30;43.30;;;;;;5037231;27;93901;-58
2023/01/10 05:42:41;;;;;;;1.27;0.87;;;20.30;43.30;;;;;;5038044;27;93016;-59
2023/01/10 05:45:10;;;;;;;2.43;1.00;;;20.30;43.30;;;;;;5053032;27;92341;-59
2023/01/10 05:47:38;;;;;;;3.27;1.07;;;20.30;43.30;;;;;;5065139;27;94057;-59
2023/01/10 05:50:07;;;;;;;0.83;0.50;;;20.30;43.30;;;;;;5043446;27;91978;-59
2023/01/10 05:52:36;;;;;;;1.07;0.97;;;20.30;43.40;;;;;;5039009;27;92169;-60
2023/01/10 05:55:05;;;;;;;3.10;1.23;;;20.20;43.20;;;;;;5041260;27;92500;-58
2023/01/10 05:57:33;;;;;;;0.83;0.73;;;20.20;43.30;;;;;;5060077;27;92967;-58
2023/01/10 06:00:01;;;;;;;1.90;0.80;;;20.20;43.20;;;;;;5053598;27;93696;-59
2023/01/10 06:02:31;;;;;;;1.10;0.70;;;20.20;43.20;;;;;;5041282;27;92067;-58
2023/01/10 06:05:00;;;;;;;0.67;0.67;;;20.20;43.20;;;;;;5040974;27;92117;-59
2023/01/10 06:07:31;;;;;;;2.67;0.93;;;20.20;43.30;;;;;;5039535;27;95167;-59
2023/01/10 06:10:00;;;;;;;1.27;0.70;;;20.20;43.30;;;;;;5040713;27;94985;-59
2023/01/10 06:12:28;;;;;;;0.80;0.80;;;20.20;43.40;;;;;;5042031;27;92159;-58
2023/01/10 06:14:56;;;;;;;0.93;0.60;;;20.20;43.30;;;;;;5052874;27;92126;-59
2023/01/10 06:17:24;;;;;;;1.73;0.80;;;20.20;43.30;;;;;;5040572;28;94141;-59
2023/01/10 06:19:52;;;;;;;1.23;0.63;;;20.20;44.00;;;;;;5043786;27;93883;-60
2023/01/10 06:22:20;;;;;;;3.97;0.83;;;20.20;43.70;;;;;;5060942;27;92178;-58
2023/01/10 06:24:48;;;;;;;2.67;1.10;;;20.10;43.30;;;;;;5060833;27;91300;-58
2023/01/10 06:27:18;;;;;;;3.10;1.03;;;20.20;43.40;;;;;;5060557;27;92119;-58
2023/01/10 06:29:46;;;;;;;1.57;0.80;;;20.10;43.40;;;;;;5046836;27;93782;-58
2023/01/10 06:32:14;;;;;;;1.30;0.93;;;20.10;43.30;;;;;;5040418;27;93061;-58
2023/01/10 06:34:42;;;;;;;1.90;0.70;;;20.10;43.40;;;;;;5042244;27;92226;-59
2023/01/10 06:37:10;;;;;;;2.67;0.90;;;20.10;43.40;;;;;;5040165;27;93226;-60
2023/01/10 06:39:38;;;;;;;4.03;0.70;;;20.10;43.40;;;;;;5040131;27;93790;-59
2023/01/10 06:42:06;;;;;;;2.07;0.90;;;20.10;44.00;;;;;;5041225;27;92123;-58
2023/01/10 06:44:36;;;;;;;1.87;0.70;;;20.10;43.40;;;;;;5044984;27;92061;-58
2023/01/10 06:47:04;;;;;;;1.17;0.70;;;20.10;43.40;;;;;;5059757;27;94430;-59
2023/01/10 06:49:32;;;;;;;1.53;0.50;;;20.10;43.40;;;;;;5058793;27;93727;-59
2023/01/10 06:52:00;;;;;;;1.53;0.50;;;20.10;43.40;;;;;;5058506;27;92088;-59
2023/01/10 06:54:28;;;;;;;1.07;0.70;;;20.00;43.30;;;;;;5058154;27;92055;-60
2023/01/10 06:56:56;;;;;;;0.87;0.57;;;20.00;43.30;;;;;;5058031;27;94141;-59
2023/01/10 06:59:24;;;;;;;2.10;0.87;;;20.10;43.50;;;;;;5057215;27;92606;-58
2023/01/10 07:01:53;;;;;;;1.17;0.60;;;20.00;43.40;;;;;;5045379;27;92082;-58
2023/01/10 07:04:22;;;;;;;0.73;0.73;;;20.00;43.40;;;;;;5059894;27;92135;-58
2023/01/10 07:06:50;;;;;;;1.37;0.60;;;20.00;43.40;;;;;;5057942;27;94139;-60
2023/01/10 07:09:18;;;;;;;5.10;1.20;;;20.00;43.40;;;;;;5057847;27;93068;-59
2023/01/10 07:11:46;;;;;;;1.80;0.97;;;20.00;43.40;;;;;;5059678;27;92185;-58
2023/01/10 07:14:14;;;;;;;0.97;0.53;;;20.00;43.40;;;;;;5057940;27;91428;-59
2023/01/10 07:16:42;;;;;;;1.33;1.00;;;20.00;43.50;;;;;;5043194;27;93345;-59
2023/01/10 07:19:12;;;;;;;3.73;1.20;;;20.00;43.40;;;;;;5040254;27;93995;-59
2023/01/10 07:21:40;;;;;;;0.50;0.50;;;20.00;43.50;;;;;;5039401;27;93018;-58
2023/01/10 07:24:09;;;;;;;2.20;0.60;;;20.00;43.50;;;;;;5039562;27;92010;-59
2023/01/10 07:26:37;;;;;;;0.50;0.50;;;20.00;43.50;;;;;;5040374;27;94228;-59
2023/01/10 07:29:05;;;;;;;0.80;0.80;;;20.00;43.50;;;;;;5039566;28;93994;-59
2023/01/10 07:31:33;;;;;;;0.40;0.40;;;20.00;43.50;;;;;;5040606;27;91986;-60
2023/01/10 07:34:01;;;;;;;0.57;0.57;;;20.00;43.50;;;;;;5039799;28;92120;-59
2023/01/10 07:36:30;;;;;;;1.00;0.83;;;19.90;43.50;;;;;;5040334;27;94328;-59
2023/01/10 07:38:58;;;;;;;0.93;0.83;;;19.90;43.50;;;;;;5052569;27;93867;-59
2023/01/10 07:41:26;;;;;;;0.73;0.73;;;19.90;43.50;;;;;;5059700;27;92081;-59
2023/01/10 07:43:55;;;;;;;0.87;0.57;;;19.90;43.50;;;;;;5052518;27;92153;-59
2023/01/10 07:46:23;;;;;;;0.63;0.37;;;19.90;43.50;;;;;;5044412;27;94180;-59
2023/01/10 07:48:51;;;;;;;1.27;0.63;;;19.90;43.50;;;;;;5053265;27;95018;-59
2023/01/10 07:51:19;;;;;;;0.60;0.60;;;19.90;43.50;;;;;;5048433;27;92174;-59
2023/01/10 07:53:48;;;;;;;1.20;0.80;;;19.90;43.50;;;;;;5076588;27;92115;-59
2023/01/10 07:56:16;;;;;;;1.03;0.63;;;19.90;43.50;;;;;;5075431;27;93284;-59
2023/01/10 07:58:46;;;;;;;0.73;0.63;;;19.90;43.50;;;;;;5058637;27;93982;-59
2023/01/10 08:01:14;;;;;;;3.23;0.80;;;19.90;43.90;;;;;;5059350;27;92074;-59
2023/01/10 08:03:42;;;;;;;1.50;0.80;;;19.90;43.60;;;;;;5059916;27;91296;-60
2023/01/10 08:06:10;;;;;;;0.73;0.60;;;19.90;43.60;;;;;;5058765;27;94631;-59
2023/01/10 08:08:39;;;;;;;0.80;0.50;;;19.90;43.60;;;;;;5053549;27;93890;-59
2023/01/10 08:11:08;;;;;;;0.63;0.40;;;19.90;43.60;;;;;;5070611;27;93062;-60
2023/01/10 08:13:36;;;;;;;1.93;0.80;;;19.80;43.50;;;;;;5079787;27;92051;-60
2023/01/10 08:16:05;;;;;;;0.87;0.87;;;19.90;43.60;;;;;;5059359;27;93178;-60
2023/01/10 08:18:33;;;;;;;0.73;0.60;;;19.80;43.50;;;;;;5057920;27;92688;-60
2023/01/10 08:21:01;;;;;;;3.10;0.67;;;19.80;43.50;;;;;;5058398;27;92007;-59
2023/01/10 08:23:31;;;;;;;1.23;0.80;;;19.80;43.60;;;;;;5059029;27;92449;-59
2023/01/10 08:25:59;;;;;;;1.30;1.13;;;19.90;43.60;;;;;;5058480;27;94101;-59
2023/01/10 08:28:28;;;;;;;0.93;0.40;;;19.90;43.60;;;;;;5059034;27;92694;-59
2023/01/10 08:30:57;;;;;;;2.20;0.70;;;19.90;43.60;;;;;;5059143;27;92220;-59
2023/01/10 08:33:26;;;;;;;2.30;0.70;;;20.00;43.60;;;;;;5058800;27;92271;-59
2023/01/10 08:35:54;;;;;;;0.87;0.67;;;20.10;43.50;;;;;;5057905;27;95210;-59
2023/01/10 08:38:22;;;;;;;0.73;0.73;;;20.30;43.50;;;;;;5058527;27;94815;-59
2023/01/10 08:40:50;;;;;;;2.40;0.83;;;20.40;44.00;;;;;;5058877;27;92016;-59
2023/01/10 08:43:18;;;;;;;1.03;0.63;;;20.60;43.40;;;;;;5058775;27;92014;-60
2023/01/10 08:45:48;;;;;;;1.03;0.60;;;20.80;43.30;;;;;;5058348;27;93282;-59
2023/01/10 08:48:16;;;;;;;0.67;0.20;;;21.10;43.30;;;;;;5058584;27;92778;-59
2023/01/10 08:50:44;;;;;;;0.90;0.60;;;21.30;43.20;;;;;;5058237;27;92170;-59
2023/01/10 08:53:13;;;;;;;1.50;1.13;;;21.50;43.00;;;;;;5059127;27;91479;-59
2023/01/10 08:55:41;;;;;;;1.00;0.47;;;21.70;42.90;;;;;;5058454;27;94270;-59
2023/01/10 08:58:09;;;;;;;4.13;0.70;;;21.90;42.90;;;;;;5058524;27;93921;-59
2023/01/10 09:00:37;;;;;;;2.80;0.50;;;22.10;42.80;;;;;;5057936;27;93031;-59
2023/01/10 09:03:07;;;;;;;0.40;0.40;;;22.30;42.70;;;;;;5058594;27;92088;-59
2023/01/10 09:05:35;;;;;;;2.53;0.80;;;22.50;42.70;;;;;;5058331;27;93087;-59
2023/01/10 09:08:04;;;;;;;0.50;0.50;;;22.60;42.50;;;;;;5058341;27;93855;-59
2023/01/10 09:10:32;;;;;;;0.30;0.30;;;22.80;42.40;;;;;;5058513;27;92095;-59
2023/01/10 09:13:00;;;;;;;1.33;0.80;;;22.90;42.30;;;;;;5057912;27;92027;-57
2023/01/10 09:15:30;;;;;;;0.80;0.43;;;23.10;42.30;;;;;;5057720;27;93245;-58
2023/01/10 09:17:59;;;;;;;0.30;0.30;;;23.20;42.20;;;;;;5058422;27;92740;-57
2023/01/10 09:20:29;;;;;;;0.60;0.53;;;23.30;42.10;;;;;;5058160;27;92106;-58
2023/01/10 09:22:58;;;;;;;1.90;0.53;;;23.40;42.10;;;;;;5058095;27;92004;-57
2023/01/10 09:25:26;;;;;;;0.93;0.40;;;23.50;42.00;;;;;;5057259;27;94173;-58
2023/01/10 09:27:58;;;;;;;0.83;0.47;;;23.60;42.00;;;;;;5057692;27;94969;-58
2023/01/10 09:30:26;;;;;;;1.47;0.70;;;23.70;42.00;;;;;;5059602;27;92055;-58
2023/01/10 09:32:54;;;;;;;0.60;0.60;;;23.80;41.90;;;;;;5061780;27;92087;-58
2023/01/10 09:35:22;;;;;;;1.73;0.60;;;23.80;41.70;;;;;;5061275;27;93260;-57
2023/01/10 09:37:53;;;;;;;1.50;0.50;;;23.90;41.70;;;;;;5061412;27;94230;-58
2023/01/10 09:40:27;;;;;;;0.93;0.40;;;24.00;41.70;;;;;;5061804;27;92076;-57
2023/01/10 09:43:01;;;;;;;0.30;0.30;;;24.10;41.70;;;;;;5061768;27;91286;-57
2023/01/10 09:45:32;;;;;;;1.67;0.50;;;24.20;41.60;;;;;;5061293;27;94197;-57
2023/01/10 09:48:03;;;;;;;0.40;0.40;;;24.30;41.60;;;;;;5061192;27;93850;-56
2023/01/10 09:50:34;;;;;;;0.37;0.30;;;24.30;41.50;;;;;;5061305;27;93013;-57
2023/01/10 09:53:06;;;;;;;0.30;0.30;;;24.40;41.50;;;;;;5061211;27;92117;-57
2023/01/10 09:55:35;;;;;;;1.10;0.70;;;24.30;41.50;;;;;;5061230;27;93230;-57
2023/01/10 09:58:05;;;;;;;1.40;0.63;;;24.30;41.40;;;;;;5060986;27;92934;-57
2023/01/10 10:00:38;;;;;;;1.47;0.67;;;24.30;41.50;;;;;;5061407;27;92026;-57
2023/01/10 10:03:17;;;;;;;3.17;0.60;;;24.20;41.40;;;;;;5061063;27;92056;-57
2023/01/10 10:05:45;;;;;;;4.00;0.60;;;24.20;41.40;;;;;;5059917;27;93072;-57
2023/01/10 10:08:17;;;;;;;1.70;0.30;;;24.30;41.40;;;;;;5061040;27;92587;-57
2023/01/10 10:10:51;;;;;;;2.33;0.83;;;24.30;41.40;;;;;;5061047;27;91967;-57
2023/01/10 10:13:21;;;;;;;1.27;0.70;;;24.40;41.40;;;;;;5061013;27;91965;-56
2023/01/10 10:15:57;;;;;;;0.40;0.30;;;24.50;41.30;;;;;;5060001;27;93779;-56
2023/01/10 10:18:30;;;;;;;0.50;0.50;;;24.60;41.20;;;;;;5060939;27;93847;-57
2023/01/10 10:21:01;;;;;;;1.27;0.63;;;24.70;41.20;;;;;;5061235;27;92714;-57
2023/01/10 10:23:43;;;;;;;0.63;0.40;;;24.70;41.10;;;;;;5060495;27;92972;-57
2023/01/10 10:26:13;;;;;;;0.67;0.57;;;24.70;41.00;;;;;;5060378;27;94210;-57
2023/01/10 10:28:55;;;;;;;1.93;0.57;;;24.70;41.00;;;;;;5060072;27;92772;-57
2023/01/10 10:31:30;;;;;;;0.40;0.40;;;24.70;41.00;;;;;;5060772;27;92129;-56
2023/01/10 10:34:01;;;;;;;0.47;0.40;;;24.70;41.00;;;;;;5061513;27;91443;-58
2023/01/10 10:36:34;;;;;;;2.13;0.50;;;24.60;41.00;;;;;;5060074;27;93216;-57
2023/01/10 10:39:03;;;;;;;1.17;0.57;;;24.60;41.10;;;;;;5060238;27;93865;-59
2023/01/10 10:41:33;;;;;;;2.00;0.60;;;24.50;41.00;;;;;;5059862;27;93031;-56
2023/01/10 10:44:03;;;;;;;1.07;0.67;;;24.50;41.10;;;;;;5060919;27;92312;-56
2023/01/10 10:46:32;;;;;;;1.10;0.47;;;24.40;41.10;;;;;;5060566;27;93115;-58
2023/01/10 10:49:01;;;;;;;0.73;0.67;;;24.30;41.10;;;;;;5060313;27;93916;-59
2023/01/10 10:51:33;;;;;;;0.40;0.40;;;24.20;41.10;;;;;;5059991;27;92141;-58
2023/01/10 10:54:05;;;;;;;1.60;0.60;;;24.20;41.20;;;;;;5060403;27;92075;-58
2023/01/10 10:56:33;;;;;;;0.50;0.30;;;24.10;41.10;;;;;;5060030;27;94138;-58
2023/01/10 10:59:01;;;;;;;1.23;0.63;;;24.00;41.20;;;;;;5060751;27;92959;-58
2023/01/10 11:01:29;;;;;;;1.97;0.70;;;23.90;41.20;;;;;;5060662;27;92012;-58
2023/01/10 11:03:58;;;;;;;2.33;0.50;;;23.80;41.20;;;;;;5060497;27;92011;-58
2023/01/10 11:06:30;;;;;;;0.50;0.40;;;23.80;41.30;;;;;;5059197;27;95145;-58
2023/01/10 11:09:03;;;;;;;1.27;0.60;;;23.70;41.20;;;;;;5059637;27;93876;-58
2023/01/10 11:11:34;;;;;;;0.80;0.80;;;23.70;41.40;;;;;;5060330;27;92047;-59
2023/01/10 11:14:05;;;;;;;1.77;0.70;;;23.60;41.30;;;;;;5060451;27;91998;-59
2023/01/10 11:16:36;;;;;;;0.50;0.50;;;23.50;42.00;;;;;;5059672;27;93139;-58
2023/01/10 11:19:14;;;;;;;0.80;0.80;;;23.50;41.40;;;;;;5059973;27;92742;-58
2023/01/10 11:21:44;;;;;;;1.50;0.77;;;23.30;41.40;;;;;;5060253;27;92778;-58
2023/01/10 11:24:21;;;;;;;1.13;0.70;;;23.30;41.40;;;;;;5060269;27;91421;-59
2023/01/10 11:26:49;;;;;;;0.50;0.50;;;23.20;41.40;;;;;;5058747;27;93244;-58
2023/01/10 11:29:18;;;;;;;0.37;0.37;;;23.20;41.40;;;;;;5059612;27;93800;-58
2023/01/10 11:31:46;;;;;;;1.53;0.73;;;23.10;41.40;;;;;;5059672;27;93025;-58
2023/01/10 11:34:21;;;;;;;0.57;0.50;;;23.10;41.40;;;;;;5059907;27;92271;-58
2023/01/10 11:36:56;;;;;;;3.20;1.13;;;23.10;41.60;;;;;;5059255;27;93576;-58
2023/01/10 11:39:26;;;;;;;1.60;0.70;;;23.00;41.50;;;;;;5059371;27;92141;-59
2023/01/10 11:41:55;;;;;;;1.33;0.53;;;23.00;41.50;;;;;;5059780;27;92008;-58
2023/01/10 11:44:24;;;;;;;2.43;0.70;;;22.90;41.50;;;;;;5059935;27;92016;-58
2023/01/10 11:46:54;;;;;;;1.50;0.50;;;22.90;41.60;;;;;;5059365;27;94070;-58
2023/01/10 11:49:28;;;;;;;1.10;0.40;;;22.90;41.60;;;;;;5059855;27;92732;-58
2023/01/10 11:51:59;;;;;;;0.40;0.40;;;22.80;41.60;;;;;;5059679;27;92006;-58
2023/01/10 11:54:29;;;;;;;1.23;0.67;;;22.80;41.60;;;;;;5059205;27;92035;-58
2023/01/10 11:56:58;;;;;;;0.40;0.40;;;22.80;41.70;;;;;;5058898;27;95093;-58
2023/01/10 11:59:26;;;;;;;0.83;0.70;;;22.70;41.70;;;;;;5059561;27;95207;-59
2023/01/10 12:01:59;;;;;;;0.40;0.40;;;22.70;41.70;;;;;;5059562;27;92098;-58
2023/01/10 12:04:29;;;;;;;1.10;1.00;;;22.60;41.70;;;;;;5059322;27;92037;-58
2023/01/10 12:06:59;;;;;;;0.50;0.50;;;22.60;41.70;;;;;;5058295;27;93232;-58
2023/01/10 12:09:39;;;;;;;3.27;0.90;;;22.60;41.70;;;;;;5058716;27;93899;-58
2023/01/10 12:12:19;;;;;;;5.63;1.00;;;22.50;41.70;;;;;;5059484;27;92142;-58
2023/01/10 12:14:47;;;;;;;0.47;0.47;;;22.50;41.70;;;;;;5059273;27;91366;-58
2023/01/10 12:17:21;;;;;;;3.13;0.90;;;22.50;41.70;;;;;;5059119;27;93081;-58
2023/01/10 12:19:51;;;;;;;0.70;0.40;;;22.50;41.80;;;;;;5058545;27;92960;-59
2023/01/10 12:22:20;;;;;;;0.93;0.73;;;22.50;41.80;;;;;;5058462;27;93116;-58
2023/01/10 12:24:49;;;;;;;1.13;0.70;;;22.50;41.90;;;;;;5058913;27;92046;-58
2023/01/10 12:27:18;;;;;;;1.90;0.87;;;22.40;41.80;;;;;;5058318;27;95102;-58
2023/01/10 12:29:51;;;;;;;2.93;0.97;;;22.40;42.40;;;;;;5058517;27;92792;-58
2023/01/10 12:32:21;;;;;;;1.33;0.40;;;22.40;41.90;;;;;;5058905;27;92123;-58
2023/01/10 12:34:52;;;;;;;3.73;0.50;;;22.30;41.80;;;;;;5058806;27;92126;-58
2023/01/10 12:37:22;;;;;;;3.03;0.93;;;22.30;41.80;;;;;;5057614;27;93242;-58
2023/01/10 12:39:53;;;;;;;0.40;0.40;;;22.40;42.00;;;;;;5058722;27;93849;-59
2023/01/10 12:45:13;;;;;;;0.67;0.60;;;22.30;41.90;;;;;;5058453;27;92844;-58
2023/01/10 12:47:55;;;;;;;1.57;0.70;;;22.20;41.90;;;;;;5057387;27;94276;-59
2023/01/10 12:50:26;;;;;;;3.40;0.83;;;22.20;42.00;;;;;;5059044;27;94366;-58
2023/01/10 12:52:57;;;;;;;2.10;1.10;;;22.20;42.00;;;;;;5058412;27;92125;-59
2023/01/10 12:55:29;;;;;;;0.40;0.40;;;22.20;42.00;;;;;;5057979;27;92126;-58
2023/01/10 12:57:58;;;;;;;1.37;0.40;;;22.10;41.90;;;;;;5058250;27;94375;-59
2023/01/10 13:00:28;;;;;;;1.57;0.60;;;22.10;42.60;;;;;;5058304;27;94001;-58
2023/01/10 13:03:02;;;;;;;1.33;0.80;;;22.10;42.00;;;;;;5058546;27;92070;-59
2023/01/10 13:05:31;;;;;;;0.50;0.50;;;22.10;42.00;;;;;;5058584;27;91285;-58
2023/01/10 13:08:00;;;;;;;0.73;0.43;;;22.10;42.00;;;;;;5057722;27;94567;-58
2023/01/10 13:10:30;;;;;;;2.43;0.50;;;22.10;42.00;;;;;;5057543;27;93880;-58
2023/01/10 13:13:00;;;;;;;0.83;0.70;;;22.00;42.00;;;;;;5057319;27;93041;-58